Terminal Aerodrome Forecast
Issued by NWS Mt. Holly, NJ

Home | Current Version | Previous Version | Text Only | Print | Product List | Glossary On
Versions: 1 2 3 4 5 6 7 8 9 10 11 12 13 14 15 16 17 18 19 20 21
000
FTUS41 KPHI 282325
TAFPHL
TAF
KPHL 282325Z 2900/3006 19008KT P6SM FEW050
     FM290400 19004KT P6SM SCT250
      TEMPO 2908/2911 5SM BR
     FM291200 19006KT P6SM SCT250
     FM291500 21008KT P6SM SCT050 BKN200
     FM292000 20006KT P6SM VCSH FEW030 BKN050
     FM300100 16006KT 5SM -SHRA OVC025=

USA.gov is the U.S. government's official web portal to all federal, state and local government web resources and services.